Lynn, Michigan
Current Conditions -  °F | °C
As of 5:36 AM on Friday 24 Oct 2014 (Local Time) from KPHN Reporting Station
Haze Haze  
Wind Chill: 32°   Ceiling: Unl
Heat Index: 32°   Visibility: 4mi
Dew Point: 32°   Wind: 0mph
Humidity: 100%   Direction: NA
Pressure: 30.07"   Gusts: NA
Location:  43.127°N, 82.8328°W
Report Text: KPHN 240936Z AUTO 00000KT 4SM BR CLR 00/00 A3007 RMK AO2
Loading
Personal Weather Stations






























Interactive Weather Map
Tropical Storm Tracking
New forecast layout! Learn more

10-Day Weather Forecast

Advertisements
Track Severe Weather on mobile